sensor_id;sensor_type;location;lat;lon;timestamp;P1;durP1;ratioP1;P2;durP2;ratioP2
9270;SDS011;4673;53.458;9.940;2022-09-13T00:01:13;2.40;;;2.40;;
9270;SDS011;4673;53.458;9.940;2022-09-13T00:03:39;2.20;;;2.20;;
9270;SDS011;4673;53.458;9.940;2022-09-13T00:06:06;2.28;;;2.28;;
9270;SDS011;4673;53.458;9.940;2022-09-13T00:08:36;2.72;;;2.72;;
9270;SDS011;4673;53.458;9.940;2022-09-13T00:11:02;2.65;;;2.65;;
9270;SDS011;4673;53.458;9.940;2022-09-13T00:13:28;3.28;;;3.28;;
9270;SDS011;4673;53.458;9.940;2022-09-13T00:15:53;2.50;;;2.50;;
9270;SDS011;4673;53.458;9.940;2022-09-13T00:18:19;3.05;;;3.05;;
9270;SDS011;4673;53.458;9.940;2022-09-13T00:20:45;3.10;;;3.10;;
9270;SDS011;4673;53.458;9.940;2022-09-13T00:23:10;2.83;;;2.83;;
9270;SDS011;4673;53.458;9.940;2022-09-13T00:25:36;2.90;;;2.90;;
9270;SDS011;4673;53.458;9.940;2022-09-13T00:28:02;2.70;;;2.70;;
9270;SDS011;4673;53.458;9.940;2022-09-13T00:30:29;2.55;;;2.55;;
9270;SDS011;4673;53.458;9.940;2022-09-13T00:32:55;2.67;;;2.67;;
9270;SDS011;4673;53.458;9.940;2022-09-13T00:35:21;2.80;;;2.80;;
9270;SDS011;4673;53.458;9.940;2022-09-13T00:37:47;2.92;;;2.92;;
9270;SDS011;4673;53.458;9.940;2022-09-13T00:40:13;2.92;;;2.92;;
9270;SDS011;4673;53.458;9.940;2022-09-13T00:42:39;3.17;;;3.17;;
9270;SDS011;4673;53.458;9.940;2022-09-13T00:45:13;2.85;;;2.85;;
9270;SDS011;4673;53.458;9.940;2022-09-13T00:52:59;3.53;;;3.53;;
9270;SDS011;4673;53.458;9.940;2022-09-13T00:55:33;3.42;;;3.42;;
9270;SDS011;4673;53.458;9.940;2022-09-13T00:58:01;3.80;;;3.80;;
9270;SDS011;4673;53.458;9.940;2022-09-13T01:00:32;3.65;;;3.65;;
9270;SDS011;4673;53.458;9.940;2022-09-13T01:02:58;3.83;;;3.83;;
9270;SDS011;4673;53.458;9.940;2022-09-13T01:05:29;4.03;;;4.03;;
9270;SDS011;4673;53.458;9.940;2022-09-13T01:08:06;3.85;;;3.85;;
9270;SDS011;4673;53.458;9.940;2022-09-13T01:10:42;5.05;;;5.05;;
9270;SDS011;4673;53.458;9.940;2022-09-13T01:13:10;3.80;;;3.80;;
9270;SDS011;4673;53.458;9.940;2022-09-13T01:15:40;4.25;;;4.25;;
9270;SDS011;4673;53.458;9.940;2022-09-13T01:18:06;4.65;;;4.65;;
9270;SDS011;4673;53.458;9.940;2022-09-13T01:20:51;4.97;;;4.97;;
9270;SDS011;4673;53.458;9.940;2022-09-13T01:26:55;4.50;;;4.50;;
9270;SDS011;4673;53.458;9.940;2022-09-13T01:35:45;4.72;;;4.72;;
9270;SDS011;4673;53.458;9.940;2022-09-13T01:41:11;5.68;;;5.68;;
9270;SDS011;4673;53.458;9.940;2022-09-13T01:49:46;5.03;;;5.03;;
9270;SDS011;4673;53.458;9.940;2022-09-13T01:52:28;5.20;;;5.20;;
9270;SDS011;4673;53.458;9.940;2022-09-13T01:58:13;5.20;;;5.20;;
9270;SDS011;4673;53.458;9.940;2022-09-13T02:03:58;5.93;;;5.93;;
9270;SDS011;4673;53.458;9.940;2022-09-13T02:06:32;5.90;;;5.90;;
9270;SDS011;4673;53.458;9.940;2022-09-13T02:09:40;5.75;;;5.75;;
9270;SDS011;4673;53.458;9.940;2022-09-13T02:12:12;5.85;;;5.85;;
9270;SDS011;4673;53.458;9.940;2022-09-13T02:14:42;4.95;;;4.95;;
9270;SDS011;4673;53.458;9.940;2022-09-13T02:17:11;5.80;;;5.80;;
9270;SDS011;4673;53.458;9.940;2022-09-13T02:19:48;6.43;;;6.43;;
9270;SDS011;4673;53.458;9.940;2022-09-13T02:22:34;6.10;;;6.10;;
9270;SDS011;4673;53.458;9.940;2022-09-13T02:25:06;6.07;;;6.07;;
9270;SDS011;4673;53.458;9.940;2022-09-13T02:27:38;5.90;;;5.90;;
9270;SDS011;4673;53.458;9.940;2022-09-13T02:30:08;6.03;;;6.03;;
9270;SDS011;4673;53.458;9.940;2022-09-13T02:32:42;6.13;;;6.13;;
9270;SDS011;4673;53.458;9.940;2022-09-13T02:35:17;6.35;;;6.35;;
9270;SDS011;4673;53.458;9.940;2022-09-13T02:38:05;5.97;;;5.97;;
9270;SDS011;4673;53.458;9.940;2022-09-13T02:40:37;5.95;;;5.95;;
9270;SDS011;4673;53.458;9.940;2022-09-13T02:43:09;6.18;;;6.18;;
9270;SDS011;4673;53.458;9.940;2022-09-13T02:45:41;5.80;;;5.80;;
9270;SDS011;4673;53.458;9.940;2022-09-13T02:48:24;6.07;;;6.07;;
9270;SDS011;4673;53.458;9.940;2022-09-13T02:51:24;6.25;;;6.25;;
9270;SDS011;4673;53.458;9.940;2022-09-13T02:57:05;6.40;;;6.40;;
9270;SDS011;4673;53.458;9.940;2022-09-13T02:59:37;7.05;;;7.05;;
9270;SDS011;4673;53.458;9.940;2022-09-13T03:04:31;7.20;;;7.20;;
9270;SDS011;4673;53.458;9.940;2022-09-13T03:06:57;7.88;;;7.88;;
9270;SDS011;4673;53.458;9.940;2022-09-13T03:09:23;7.93;;;7.93;;
9270;SDS011;4673;53.458;9.940;2022-09-13T03:12:04;9.52;;;9.52;;
9270;SDS011;4673;53.458;9.940;2022-09-13T03:14:49;8.20;;;8.20;;
9270;SDS011;4673;53.458;9.940;2022-09-13T03:28:41;9.82;;;9.82;;
9270;SDS011;4673;53.458;9.940;2022-09-13T03:45:59;10.70;;;10.70;;
9270;SDS011;4673;53.458;9.940;2022-09-13T03:48:30;10.55;;;10.55;;
9270;SDS011;4673;53.458;9.940;2022-09-13T03:51:00;11.98;;;11.98;;
9270;SDS011;4673;53.458;9.940;2022-09-13T03:53:26;11.27;;;11.27;;
9270;SDS011;4673;53.458;9.940;2022-09-13T03:55:54;12.10;;;12.10;;
9270;SDS011;4673;53.458;9.940;2022-09-13T03:58:21;11.02;;;11.02;;
9270;SDS011;4673;53.458;9.940;2022-09-13T04:00:47;10.90;;;10.90;;
9270;SDS011;4673;53.458;9.940;2022-09-13T04:03:13;10.73;;;10.68;;
9270;SDS011;4673;53.458;9.940;2022-09-13T04:05:39;10.55;;;10.55;;
9270;SDS011;4673;53.458;9.940;2022-09-13T04:08:05;10.25;;;10.25;;
9270;SDS011;4673;53.458;9.940;2022-09-13T04:10:32;10.93;;;10.93;;
9270;SDS011;4673;53.458;9.940;2022-09-13T04:12:58;10.38;;;10.38;;
9270;SDS011;4673;53.458;9.940;2022-09-13T04:15:27;10.77;;;10.77;;
9270;SDS011;4673;53.458;9.940;2022-09-13T04:17:55;10.70;;;10.70;;
9270;SDS011;4673;53.458;9.940;2022-09-13T04:20:21;10.15;;;10.15;;
9270;SDS011;4673;53.458;9.940;2022-09-13T04:23:05;10.48;;;10.48;;
9270;SDS011;4673;53.458;9.940;2022-09-13T04:25:33;10.68;;;10.68;;
9270;SDS011;4673;53.458;9.940;2022-09-13T04:28:05;10.40;;;10.40;;
9270;SDS011;4673;53.458;9.940;2022-09-13T04:30:31;10.43;;;10.43;;
9270;SDS011;4673;53.458;9.940;2022-09-13T04:32:56;12.10;;;12.07;;
9270;SDS011;4673;53.458;9.940;2022-09-13T04:38:10;11.02;;;11.02;;
9270;SDS011;4673;53.458;9.940;2022-09-13T04:40:41;11.05;;;11.05;;
9270;SDS011;4673;53.458;9.940;2022-09-13T04:43:06;11.95;;;11.95;;
9270;SDS011;4673;53.458;9.940;2022-09-13T04:45:35;12.02;;;11.93;;
9270;SDS011;4673;53.458;9.940;2022-09-13T04:48:29;11.85;;;11.85;;
9270;SDS011;4673;53.458;9.940;2022-09-13T04:51:02;13.15;;;13.15;;
9270;SDS011;4673;53.458;9.940;2022-09-13T04:53:35;12.68;;;12.57;;
9270;SDS011;4673;53.458;9.940;2022-09-13T04:56:04;14.15;;;14.05;;
9270;SDS011;4673;53.458;9.940;2022-09-13T04:58:30;13.30;;;13.20;;
9270;SDS011;4673;53.458;9.940;2022-09-13T05:01:03;13.48;;;13.38;;
9270;SDS011;4673;53.458;9.940;2022-09-13T05:03:30;14.80;;;14.70;;
9270;SDS011;4673;53.458;9.940;2022-09-13T05:08:53;14.32;;;14.23;;
9270;SDS011;4673;53.458;9.940;2022-09-13T05:11:20;17.00;;;16.90;;
9270;SDS011;4673;53.458;9.940;2022-09-13T05:13:56;16.15;;;16.05;;
9270;SDS011;4673;53.458;9.940;2022-09-13T05:16:23;16.35;;;16.25;;
9270;SDS011;4673;53.458;9.940;2022-09-13T05:18:51;16.88;;;16.77;;
9270;SDS011;4673;53.458;9.940;2022-09-13T05:21:17;16.27;;;16.17;;
9270;SDS011;4673;53.458;9.940;2022-09-13T05:23:49;16.88;;;16.77;;
9270;SDS011;4673;53.458;9.940;2022-09-13T05:26:16;18.75;;;18.65;;
9270;SDS011;4673;53.458;9.940;2022-09-13T05:28:42;17.40;;;17.30;;
9270;SDS011;4673;53.458;9.940;2022-09-13T05:33:41;19.58;;;19.48;;
9270;SDS011;4673;53.458;9.940;2022-09-13T05:36:07;18.38;;;18.27;;
9270;SDS011;4673;53.458;9.940;2022-09-13T05:38:33;20.05;;;19.95;;
9270;SDS011;4673;53.458;9.940;2022-09-13T05:41:00;18.77;;;18.67;;
9270;SDS011;4673;53.458;9.940;2022-09-13T05:43:28;18.65;;;18.55;;
9270;SDS011;4673;53.458;9.940;2022-09-13T05:45:59;19.38;;;19.27;;
9270;SDS011;4673;53.458;9.940;2022-09-13T05:48:35;20.67;;;20.58;;
9270;SDS011;4673;53.458;9.940;2022-09-13T05:51:04;18.75;;;18.65;;
9270;SDS011;4673;53.458;9.940;2022-09-13T05:53:45;16.67;;;16.58;;
9270;SDS011;4673;53.458;9.940;2022-09-13T05:56:16;18.60;;;18.50;;
9270;SDS011;4673;53.458;9.940;2022-09-13T05:58:45;16.75;;;16.65;;
9270;SDS011;4673;53.458;9.940;2022-09-13T06:01:30;18.95;;;18.85;;
9270;SDS011;4673;53.458;9.940;2022-09-13T06:03:58;17.88;;;17.77;;
9270;SDS011;4673;53.458;9.940;2022-09-13T06:06:24;18.20;;;18.10;;
9270;SDS011;4673;53.458;9.940;2022-09-13T06:08:55;17.80;;;17.70;;
9270;SDS011;4673;53.458;9.940;2022-09-13T06:11:30;17.60;;;17.50;;
9270;SDS011;4673;53.458;9.940;2022-09-13T06:13:58;16.70;;;16.60;;
9270;SDS011;4673;53.458;9.940;2022-09-13T06:16:31;15.32;;;15.23;;
9270;SDS011;4673;53.458;9.940;2022-09-13T06:18:57;15.43;;;15.32;;
9270;SDS011;4673;53.458;9.940;2022-09-13T06:21:23;15.23;;;15.13;;
9270;SDS011;4673;53.458;9.940;2022-09-13T06:23:50;16.33;;;16.23;;
9270;SDS011;4673;53.458;9.940;2022-09-13T06:26:17;14.85;;;14.75;;
9270;SDS011;4673;53.458;9.940;2022-09-13T06:28:51;14.63;;;14.55;;
9270;SDS011;4673;53.458;9.940;2022-09-13T06:31:21;15.73;;;15.63;;
9270;SDS011;4673;53.458;9.940;2022-09-13T06:33:48;14.35;;;14.25;;
9270;SDS011;4673;53.458;9.940;2022-09-13T06:36:26;13.43;;;13.32;;
9270;SDS011;4673;53.458;9.940;2022-09-13T06:38:52;13.68;;;13.57;;
9270;SDS011;4673;53.458;9.940;2022-09-13T06:41:27;14.05;;;13.95;;
9270;SDS011;4673;53.458;9.940;2022-09-13T06:44:04;13.57;;;13.57;;
9270;SDS011;4673;53.458;9.940;2022-09-13T06:46:57;14.10;;;14.00;;
9270;SDS011;4673;53.458;9.940;2022-09-13T06:49:25;13.77;;;13.68;;
9270;SDS011;4673;53.458;9.940;2022-09-13T06:52:03;13.60;;;13.60;;
9270;SDS011;4673;53.458;9.940;2022-09-13T06:54:32;12.43;;;12.43;;
9270;SDS011;4673;53.458;9.940;2022-09-13T06:56:58;12.75;;;12.75;;
9270;SDS011;4673;53.458;9.940;2022-09-13T06:59:27;13.10;;;13.00;;
9270;SDS011;4673;53.458;9.940;2022-09-13T07:01:53;12.05;;;12.05;;
9270;SDS011;4673;53.458;9.940;2022-09-13T07:04:18;12.43;;;12.43;;
9270;SDS011;4673;53.458;9.940;2022-09-13T07:06:45;11.88;;;11.77;;
9270;SDS011;4673;53.458;9.940;2022-09-13T07:09:17;12.50;;;12.50;;
9270;SDS011;4673;53.458;9.940;2022-09-13T07:11:47;12.85;;;12.85;;
9270;SDS011;4673;53.458;9.940;2022-09-13T07:14:15;12.00;;;12.00;;
9270;SDS011;4673;53.458;9.940;2022-09-13T07:16:42;12.10;;;12.10;;
9270;SDS011;4673;53.458;9.940;2022-09-13T07:19:14;10.80;;;10.80;;
9270;SDS011;4673;53.458;9.940;2022-09-13T07:21:42;12.27;;;12.27;;
9270;SDS011;4673;53.458;9.940;2022-09-13T07:24:08;11.93;;;11.82;;
9270;SDS011;4673;53.458;9.940;2022-09-13T07:26:34;11.77;;;11.77;;
9270;SDS011;4673;53.458;9.940;2022-09-13T07:29:04;11.60;;;11.60;;
9270;SDS011;4673;53.458;9.940;2022-09-13T07:31:33;10.70;;;10.70;;
9270;SDS011;4673;53.458;9.940;2022-09-13T07:34:05;10.75;;;10.75;;
9270;SDS011;4673;53.458;9.940;2022-09-13T07:36:32;10.25;;;10.25;;
9270;SDS011;4673;53.458;9.940;2022-09-13T07:38:59;10.98;;;10.98;;
9270;SDS011;4673;53.458;9.940;2022-09-13T07:41:28;9.65;;;9.65;;
9270;SDS011;4673;53.458;9.940;2022-09-13T07:43:58;10.43;;;10.43;;
9270;SDS011;4673;53.458;9.940;2022-09-13T07:46:35;10.02;;;10.02;;
9270;SDS011;4673;53.458;9.940;2022-09-13T07:49:04;8.60;;;8.60;;
9270;SDS011;4673;53.458;9.940;2022-09-13T07:51:35;8.50;;;8.50;;
9270;SDS011;4673;53.458;9.940;2022-09-13T07:54:03;9.38;;;9.38;;
9270;SDS011;4673;53.458;9.940;2022-09-13T07:56:32;10.18;;;10.18;;
9270;SDS011;4673;53.458;9.940;2022-09-13T07:59:00;8.73;;;8.73;;
9270;SDS011;4673;53.458;9.940;2022-09-13T08:01:29;9.65;;;9.65;;
9270;SDS011;4673;53.458;9.940;2022-09-13T08:04:03;9.05;;;9.05;;
9270;SDS011;4673;53.458;9.940;2022-09-13T08:06:36;10.30;;;10.30;;
9270;SDS011;4673;53.458;9.940;2022-09-13T08:09:04;8.95;;;8.95;;
9270;SDS011;4673;53.458;9.940;2022-09-13T08:14:10;9.02;;;9.02;;
9270;SDS011;4673;53.458;9.940;2022-09-13T08:16:43;8.95;;;8.95;;
9270;SDS011;4673;53.458;9.940;2022-09-13T08:19:13;8.27;;;8.27;;
9270;SDS011;4673;53.458;9.940;2022-09-13T08:21:46;8.75;;;8.70;;
9270;SDS011;4673;53.458;9.940;2022-09-13T08:24:42;7.90;;;7.90;;
9270;SDS011;4673;53.458;9.940;2022-09-13T08:27:24;8.57;;;8.57;;
9270;SDS011;4673;53.458;9.940;2022-09-13T08:30:02;8.25;;;8.25;;
9270;SDS011;4673;53.458;9.940;2022-09-13T08:32:34;7.05;;;7.05;;
9270;SDS011;4673;53.458;9.940;2022-09-13T08:35:12;6.55;;;6.55;;
9270;SDS011;4673;53.458;9.940;2022-09-13T08:38:01;6.53;;;6.53;;
9270;SDS011;4673;53.458;9.940;2022-09-13T09:01:42;3.35;;;3.35;;
9270;SDS011;4673;53.458;9.940;2022-09-13T09:07:10;2.85;;;2.85;;
9270;SDS011;4673;53.458;9.940;2022-09-13T09:09:46;2.38;;;2.38;;
9270;SDS011;4673;53.458;9.940;2022-09-13T09:12:37;2.03;;;2.03;;
9270;SDS011;4673;53.458;9.940;2022-09-13T09:15:14;2.35;;;2.35;;
9270;SDS011;4673;53.458;9.940;2022-09-13T09:17:59;2.17;;;2.17;;
9270;SDS011;4673;53.458;9.940;2022-09-13T09:20:49;2.03;;;2.03;;
9270;SDS011;4673;53.458;9.940;2022-09-13T09:23:25;1.98;;;1.98;;
9270;SDS011;4673;53.458;9.940;2022-09-13T09:25:55;1.95;;;1.95;;
9270;SDS011;4673;53.458;9.940;2022-09-13T09:28:41;2.15;;;2.15;;
9270;SDS011;4673;53.458;9.940;2022-09-13T09:31:15;1.25;;;1.25;;
9270;SDS011;4673;53.458;9.940;2022-09-13T09:39:03;1.65;;;1.65;;
9270;SDS011;4673;53.458;9.940;2022-09-13T09:41:33;1.58;;;1.58;;
9270;SDS011;4673;53.458;9.940;2022-09-13T09:46:49;1.70;;;1.70;;
9270;SDS011;4673;53.458;9.940;2022-09-13T09:49:36;1.42;;;1.42;;
9270;SDS011;4673;53.458;9.940;2022-09-13T09:52:37;1.98;;;1.98;;
9270;SDS011;4673;53.458;9.940;2022-09-13T09:55:26;1.10;;;1.10;;
9270;SDS011;4673;53.458;9.940;2022-09-13T09:58:04;2.00;;;2.00;;
9270;SDS011;4673;53.458;9.940;2022-09-13T10:00:33;1.98;;;1.98;;
9270;SDS011;4673;53.458;9.940;2022-09-13T10:03:16;1.50;;;1.50;;
9270;SDS011;4673;53.458;9.940;2022-09-13T10:05:48;1.40;;;1.40;;
9270;SDS011;4673;53.458;9.940;2022-09-13T10:08:23;1.33;;;1.33;;
9270;SDS011;4673;53.458;9.940;2022-09-13T10:10:53;1.58;;;1.58;;
9270;SDS011;4673;53.458;9.940;2022-09-13T10:13:21;1.75;;;1.75;;
9270;SDS011;4673;53.458;9.940;2022-09-13T10:15:55;1.15;;;1.15;;
9270;SDS011;4673;53.458;9.940;2022-09-13T10:18:24;1.30;;;1.30;;
9270;SDS011;4673;53.458;9.940;2022-09-13T10:23:44;1.27;;;1.27;;
9270;SDS011;4673;53.458;9.940;2022-09-13T10:26:15;1.67;;;1.67;;
9270;SDS011;4673;53.458;9.940;2022-09-13T10:28:58;1.95;;;1.95;;
9270;SDS011;4673;53.458;9.940;2022-09-13T10:31:31;1.70;;;1.70;;
9270;SDS011;4673;53.458;9.940;2022-09-13T10:34:00;1.75;;;1.75;;
9270;SDS011;4673;53.458;9.940;2022-09-13T10:36:31;1.48;;;1.48;;
9270;SDS011;4673;53.458;9.940;2022-09-13T10:39:02;1.13;;;1.13;;
9270;SDS011;4673;53.458;9.940;2022-09-13T10:41:34;1.67;;;1.67;;
9270;SDS011;4673;53.458;9.940;2022-09-13T10:44:05;1.50;;;1.50;;
9270;SDS011;4673;53.458;9.940;2022-09-13T10:46:44;1.10;;;1.10;;
9270;SDS011;4673;53.458;9.940;2022-09-13T10:55:14;1.48;;;1.48;;
9270;SDS011;4673;53.458;9.940;2022-09-13T10:57:47;1.15;;;1.15;;
9270;SDS011;4673;53.458;9.940;2022-09-13T11:09:15;1.85;;;1.85;;
9270;SDS011;4673;53.458;9.940;2022-09-13T11:12:13;0.77;;;0.77;;
9270;SDS011;4673;53.458;9.940;2022-09-13T11:15:29;1.30;;;1.30;;
9270;SDS011;4673;53.458;9.940;2022-09-13T11:47:13;1.42;;;1.42;;
9270;SDS011;4673;53.458;9.940;2022-09-13T11:56:15;1.42;;;1.42;;
9270;SDS011;4673;53.458;9.940;2022-09-13T12:02:03;1.05;;;1.05;;
9270;SDS011;4673;53.458;9.940;2022-09-13T12:04:44;1.52;;;1.52;;
9270;SDS011;4673;53.458;9.940;2022-09-13T12:07:39;1.45;;;1.45;;
9270;SDS011;4673;53.458;9.940;2022-09-13T12:12:53;1.27;;;1.27;;
9270;SDS011;4673;53.458;9.940;2022-09-13T12:15:39;1.42;;;1.42;;
9270;SDS011;4673;53.458;9.940;2022-09-13T12:18:12;1.45;;;1.45;;
9270;SDS011;4673;53.458;9.940;2022-09-13T12:21:08;1.00;;;1.00;;
9270;SDS011;4673;53.458;9.940;2022-09-13T12:28:56;1.30;;;1.30;;
9270;SDS011;4673;53.458;9.940;2022-09-13T12:31:26;0.90;;;0.90;;
9270;SDS011;4673;53.458;9.940;2022-09-13T12:33:53;1.48;;;1.48;;
9270;SDS011;4673;53.458;9.940;2022-09-13T12:44:40;0.85;;;0.85;;
9270;SDS011;4673;53.458;9.940;2022-09-13T12:52:37;1.67;;;1.67;;
9270;SDS011;4673;53.458;9.940;2022-09-13T13:03:29;1.40;;;1.40;;
9270;SDS011;4673;53.458;9.940;2022-09-13T13:06:33;1.60;;;1.60;;
9270;SDS011;4673;53.458;9.940;2022-09-13T13:09:05;1.10;;;1.10;;
9270;SDS011;4673;53.458;9.940;2022-09-13T13:11:46;1.05;;;1.05;;
9270;SDS011;4673;53.458;9.940;2022-09-13T13:14:28;0.98;;;0.98;;
9270;SDS011;4673;53.458;9.940;2022-09-13T13:20:00;1.05;;;1.05;;
9270;SDS011;4673;53.458;9.940;2022-09-13T13:22:49;1.60;;;1.60;;
9270;SDS011;4673;53.458;9.940;2022-09-13T13:25:29;1.48;;;1.48;;
9270;SDS011;4673;53.458;9.940;2022-09-13T13:27:57;1.65;;;1.65;;
9270;SDS011;4673;53.458;9.940;2022-09-13T13:30:40;1.42;;;1.42;;
9270;SDS011;4673;53.458;9.940;2022-09-13T13:33:22;1.52;;;1.52;;
9270;SDS011;4673;53.458;9.940;2022-09-13T13:35:51;1.30;;;1.30;;
9270;SDS011;4673;53.458;9.940;2022-09-13T13:38:39;1.40;;;1.40;;
9270;SDS011;4673;53.458;9.940;2022-09-13T13:41:46;0.88;;;0.88;;
9270;SDS011;4673;53.458;9.940;2022-09-13T13:46:46;1.38;;;1.38;;
9270;SDS011;4673;53.458;9.940;2022-09-13T13:52:38;1.38;;;1.38;;
9270;SDS011;4673;53.458;9.940;2022-09-13T13:58:14;1.15;;;1.15;;
9270;SDS011;4673;53.458;9.940;2022-09-13T14:00:50;1.42;;;1.42;;
9270;SDS011;4673;53.458;9.940;2022-09-13T14:06:01;1.48;;;1.48;;
9270;SDS011;4673;53.458;9.940;2022-09-13T14:16:51;1.40;;;1.40;;
9270;SDS011;4673;53.458;9.940;2022-09-13T14:19:41;1.17;;;1.17;;
9270;SDS011;4673;53.458;9.940;2022-09-13T14:22:23;1.17;;;1.17;;
9270;SDS011;4673;53.458;9.940;2022-09-13T14:24:51;1.27;;;1.27;;
9270;SDS011;4673;53.458;9.940;2022-09-13T14:29:53;1.35;;;1.35;;
9270;SDS011;4673;53.458;9.940;2022-09-13T14:32:43;1.98;;;1.98;;
9270;SDS011;4673;53.458;9.940;2022-09-13T14:35:29;1.45;;;1.45;;
9270;SDS011;4673;53.458;9.940;2022-09-13T14:37:55;1.45;;;1.45;;
9270;SDS011;4673;53.458;9.940;2022-09-13T14:40:34;1.88;;;1.88;;
9270;SDS011;4673;53.458;9.940;2022-09-13T14:43:01;1.73;;;1.73;;
9270;SDS011;4673;53.458;9.940;2022-09-13T14:45:39;1.80;;;1.80;;
9270;SDS011;4673;53.458;9.940;2022-09-13T14:50:38;1.95;;;1.95;;
9270;SDS011;4673;53.458;9.940;2022-09-13T14:53:15;1.75;;;1.75;;
9270;SDS011;4673;53.458;9.940;2022-09-13T14:55:56;1.70;;;1.70;;
9270;SDS011;4673;53.458;9.940;2022-09-13T14:58:43;1.85;;;1.85;;
9270;SDS011;4673;53.458;9.940;2022-09-13T15:01:17;1.38;;;1.38;;
9270;SDS011;4673;53.458;9.940;2022-09-13T15:03:46;1.65;;;1.65;;
9270;SDS011;4673;53.458;9.940;2022-09-13T15:06:22;2.13;;;2.13;;
9270;SDS011;4673;53.458;9.940;2022-09-13T15:08:51;1.50;;;1.50;;
9270;SDS011;4673;53.458;9.940;2022-09-13T15:11:27;1.77;;;1.77;;
9270;SDS011;4673;53.458;9.940;2022-09-13T15:16:49;1.60;;;1.60;;
9270;SDS011;4673;53.458;9.940;2022-09-13T15:19:37;2.00;;;2.00;;
9270;SDS011;4673;53.458;9.940;2022-09-13T15:22:18;2.10;;;2.10;;
9270;SDS011;4673;53.458;9.940;2022-09-13T15:24:56;1.98;;;1.98;;
9270;SDS011;4673;53.458;9.940;2022-09-13T15:30:19;1.88;;;1.88;;
9270;SDS011;4673;53.458;9.940;2022-09-13T15:32:47;1.63;;;1.63;;
9270;SDS011;4673;53.458;9.940;2022-09-13T15:35:29;2.22;;;2.22;;
9270;SDS011;4673;53.458;9.940;2022-09-13T15:38:00;1.38;;;1.38;;
9270;SDS011;4673;53.458;9.940;2022-09-13T15:40:43;1.27;;;1.27;;
9270;SDS011;4673;53.458;9.940;2022-09-13T15:43:21;1.38;;;1.38;;
9270;SDS011;4673;53.458;9.940;2022-09-13T15:45:47;2.25;;;2.25;;
9270;SDS011;4673;53.458;9.940;2022-09-13T15:48:24;2.42;;;2.42;;
9270;SDS011;4673;53.458;9.940;2022-09-13T15:51:04;1.67;;;1.67;;
9270;SDS011;4673;53.458;9.940;2022-09-13T15:53:32;2.30;;;2.30;;
9270;SDS011;4673;53.458;9.940;2022-09-13T15:55:59;1.35;;;1.35;;
9270;SDS011;4673;53.458;9.940;2022-09-13T15:58:26;1.60;;;1.60;;
9270;SDS011;4673;53.458;9.940;2022-09-13T16:00:51;1.50;;;1.50;;
9270;SDS011;4673;53.458;9.940;2022-09-13T16:03:17;1.48;;;1.48;;
9270;SDS011;4673;53.458;9.940;2022-09-13T16:05:42;2.22;;;2.22;;
9270;SDS011;4673;53.458;9.940;2022-09-13T16:08:09;1.50;;;1.50;;
9270;SDS011;4673;53.458;9.940;2022-09-13T16:10:35;1.77;;;1.77;;
9270;SDS011;4673;53.458;9.940;2022-09-13T16:13:01;1.52;;;1.52;;
9270;SDS011;4673;53.458;9.940;2022-09-13T16:15:27;2.10;;;2.10;;
9270;SDS011;4673;53.458;9.940;2022-09-13T16:17:53;2.33;;;2.33;;
9270;SDS011;4673;53.458;9.940;2022-09-13T16:20:18;2.53;;;2.53;;
9270;SDS011;4673;53.458;9.940;2022-09-13T16:22:44;1.70;;;1.70;;
9270;SDS011;4673;53.458;9.940;2022-09-13T16:25:11;1.80;;;1.80;;
9270;SDS011;4673;53.458;9.940;2022-09-13T16:27:37;1.85;;;1.85;;
9270;SDS011;4673;53.458;9.940;2022-09-13T16:30:04;2.45;;;2.45;;
9270;SDS011;4673;53.458;9.940;2022-09-13T16:32:31;1.77;;;1.77;;
9270;SDS011;4673;53.458;9.940;2022-09-13T16:34:56;2.00;;;2.00;;
9270;SDS011;4673;53.458;9.940;2022-09-13T16:37:22;1.90;;;1.90;;
9270;SDS011;4673;53.458;9.940;2022-09-13T16:39:48;1.50;;;1.50;;
9270;SDS011;4673;53.458;9.940;2022-09-13T16:42:14;1.60;;;1.60;;
9270;SDS011;4673;53.458;9.940;2022-09-13T16:44:41;1.77;;;1.77;;
9270;SDS011;4673;53.458;9.940;2022-09-13T16:47:07;1.67;;;1.67;;
9270;SDS011;4673;53.458;9.940;2022-09-13T16:49:34;1.70;;;1.70;;
9270;SDS011;4673;53.458;9.940;2022-09-13T16:52:00;2.05;;;2.05;;
9270;SDS011;4673;53.458;9.940;2022-09-13T16:54:26;1.95;;;1.95;;
9270;SDS011;4673;53.458;9.940;2022-09-13T16:56:54;2.20;;;2.20;;
9270;SDS011;4673;53.458;9.940;2022-09-13T16:59:20;1.50;;;1.50;;
9270;SDS011;4673;53.458;9.940;2022-09-13T17:01:45;2.22;;;2.22;;
9270;SDS011;4673;53.458;9.940;2022-09-13T17:04:11;1.77;;;1.77;;
9270;SDS011;4673;53.458;9.940;2022-09-13T17:06:36;1.80;;;1.80;;
9270;SDS011;4673;53.458;9.940;2022-09-13T17:09:03;1.65;;;1.65;;
9270;SDS011;4673;53.458;9.940;2022-09-13T17:11:35;1.92;;;1.92;;
9270;SDS011;4673;53.458;9.940;2022-09-13T17:14:03;1.45;;;1.45;;
9270;SDS011;4673;53.458;9.940;2022-09-13T17:16:31;1.77;;;1.77;;
9270;SDS011;4673;53.458;9.940;2022-09-13T17:18:59;1.58;;;1.58;;
9270;SDS011;4673;53.458;9.940;2022-09-13T17:21:27;1.50;;;1.50;;
9270;SDS011;4673;53.458;9.940;2022-09-13T17:23:53;1.92;;;1.92;;
9270;SDS011;4673;53.458;9.940;2022-09-13T17:26:20;1.63;;;1.63;;
9270;SDS011;4673;53.458;9.940;2022-09-13T17:28:45;1.98;;;1.98;;
9270;SDS011;4673;53.458;9.940;2022-09-13T17:31:11;1.70;;;1.70;;
9270;SDS011;4673;53.458;9.940;2022-09-13T17:33:37;1.90;;;1.90;;
9270;SDS011;4673;53.458;9.940;2022-09-13T17:36:03;1.65;;;1.65;;
9270;SDS011;4673;53.458;9.940;2022-09-13T17:38:32;1.60;;;1.60;;
9270;SDS011;4673;53.458;9.940;2022-09-13T17:40:59;1.02;;;1.02;;
9270;SDS011;4673;53.458;9.940;2022-09-13T17:43:25;1.80;;;1.80;;
9270;SDS011;4673;53.458;9.940;2022-09-13T17:45:51;1.75;;;1.75;;
9270;SDS011;4673;53.458;9.940;2022-09-13T17:48:17;1.45;;;1.45;;
9270;SDS011;4673;53.458;9.940;2022-09-13T17:50:43;1.75;;;1.75;;
9270;SDS011;4673;53.458;9.940;2022-09-13T17:53:08;1.98;;;1.98;;
9270;SDS011;4673;53.458;9.940;2022-09-13T17:55:36;1.23;;;1.23;;
9270;SDS011;4673;53.458;9.940;2022-09-13T17:58:01;2.50;;;2.50;;
9270;SDS011;4673;53.458;9.940;2022-09-13T18:00:27;1.60;;;1.60;;
9270;SDS011;4673;53.458;9.940;2022-09-13T18:02:52;1.63;;;1.63;;
9270;SDS011;4673;53.458;9.940;2022-09-13T18:05:18;2.20;;;2.20;;
9270;SDS011;4673;53.458;9.940;2022-09-13T18:07:45;1.20;;;1.20;;
9270;SDS011;4673;53.458;9.940;2022-09-13T18:10:10;1.33;;;1.33;;
9270;SDS011;4673;53.458;9.940;2022-09-13T18:12:36;1.33;;;1.33;;
9270;SDS011;4673;53.458;9.940;2022-09-13T18:15:01;1.35;;;1.35;;
9270;SDS011;4673;53.458;9.940;2022-09-13T18:17:28;1.40;;;1.40;;
9270;SDS011;4673;53.458;9.940;2022-09-13T18:19:53;2.10;;;2.10;;
9270;SDS011;4673;53.458;9.940;2022-09-13T18:22:19;1.70;;;1.70;;
9270;SDS011;4673;53.458;9.940;2022-09-13T18:24:45;1.80;;;1.80;;
9270;SDS011;4673;53.458;9.940;2022-09-13T18:27:10;2.00;;;2.00;;
9270;SDS011;4673;53.458;9.940;2022-09-13T18:29:36;1.60;;;1.60;;
9270;SDS011;4673;53.458;9.940;2022-09-13T18:32:01;1.35;;;1.35;;
9270;SDS011;4673;53.458;9.940;2022-09-13T18:34:27;1.63;;;1.63;;
9270;SDS011;4673;53.458;9.940;2022-09-13T18:36:53;1.63;;;1.63;;
9270;SDS011;4673;53.458;9.940;2022-09-13T18:39:19;1.95;;;1.95;;
9270;SDS011;4673;53.458;9.940;2022-09-13T18:41:46;1.67;;;1.67;;
9270;SDS011;4673;53.458;9.940;2022-09-13T18:44:13;1.85;;;1.85;;
9270;SDS011;4673;53.458;9.940;2022-09-13T18:46:40;1.13;;;1.13;;
9270;SDS011;4673;53.458;9.940;2022-09-13T18:49:06;1.60;;;1.60;;
9270;SDS011;4673;53.458;9.940;2022-09-13T18:51:34;1.48;;;1.48;;
9270;SDS011;4673;53.458;9.940;2022-09-13T18:54:04;1.23;;;1.23;;
9270;SDS011;4673;53.458;9.940;2022-09-13T18:56:31;2.30;;;2.28;;
9270;SDS011;4673;53.458;9.940;2022-09-13T18:58:58;1.92;;;1.92;;
9270;SDS011;4673;53.458;9.940;2022-09-13T19:01:26;1.85;;;1.85;;
9270;SDS011;4673;53.458;9.940;2022-09-13T19:08:47;1.10;;;1.10;;
9270;SDS011;4673;53.458;9.940;2022-09-13T19:11:15;1.30;;;1.30;;
9270;SDS011;4673;53.458;9.940;2022-09-13T19:13:41;1.25;;;1.25;;
9270;SDS011;4673;53.458;9.940;2022-09-13T19:16:08;1.50;;;1.50;;
9270;SDS011;4673;53.458;9.940;2022-09-13T19:18:37;1.52;;;1.52;;
9270;SDS011;4673;53.458;9.940;2022-09-13T19:21:04;1.70;;;1.70;;
9270;SDS011;4673;53.458;9.940;2022-09-13T19:23:38;1.38;;;1.38;;
9270;SDS011;4673;53.458;9.940;2022-09-13T19:28:52;2.50;;;2.50;;